Time;durP1;ratioP1;P1;durP2;ratioP2;P2;SDS_P1;SDS_P2;PMS_P1;PMS_P2;Temp;Humidity;BMP_temperature;BMP_pressure;BME280_temperature;BME280_humidity;BME280_pressure;Samples;Min_cycle;Max_cycle;Signal;HPM_P1;HPM_P2
2022/01/24 00:00:12;;;;;;;;;51.75;43.75;;;;;;;;5092562;27;45448;-66
2022/01/24 00:02:38;;;;;;;;;56.75;42.00;;;;;;;;5091697;27;45354;-65
2022/01/24 00:05:04;;;;;;;;;54.75;45.00;;;;;;;;5093159;27;45602;-65
2022/01/24 00:07:29;;;;;;;;;56.00;45.25;;;;;;;;5091832;27;45435;-65
2022/01/24 00:09:58;;;;;;;;;56.75;45.50;;;;;;;;5092296;27;45536;-65
2022/01/24 00:12:35;;;;;;;;;51.00;43.75;;;;;;;;5092562;27;45495;-67
2022/01/24 00:17:50;;;;;;;;;60.75;47.75;;;;;;;;5089718;27;45494;-65
2022/01/24 00:28:24;;;;;;;;;44.25;39.75;;;;;;;;5086572;27;45828;-65
2022/01/24 00:30:50;;;;;;;;;50.75;41.25;;;;;;;;5087506;27;46311;-65
2022/01/24 00:33:15;;;;;;;;;49.50;42.00;;;;;;;;5081607;27;45475;-65
2022/01/24 00:35:40;;;;;;;;;49.50;44.00;;;;;;;;5083506;27;45355;-66
2022/01/24 00:38:06;;;;;;;;;45.00;41.75;;;;;;;;5090400;27;46455;-66
2022/01/24 00:40:38;;;;;;;;;40.75;37.25;;;;;;;;5090357;27;46161;-65
2022/01/24 00:43:09;;;;;;;;;38.25;34.00;;;;;;;;5090239;27;45500;-65
2022/01/24 00:45:48;;;;;;;;;49.75;41.50;;;;;;;;5091051;27;45493;-67
2022/01/24 00:56:10;;;;;;;;;50.00;40.25;;;;;;;;5096768;27;45408;-66
2022/01/24 00:58:35;;;;;;;;;56.50;42.50;;;;;;;;5095024;27;46510;-65
2022/01/24 01:01:00;;;;;;;;;49.75;42.00;;;;;;;;5089855;27;46255;-65
2022/01/24 01:03:26;;;;;;;;;44.75;37.25;;;;;;;;5092167;27;45852;-66
2022/01/24 01:19:25;;;;;;;;;40.00;37.25;;;;;;;;5093699;27;45385;-65
2022/01/24 01:21:51;;;;;;;;;38.25;33.75;;;;;;;;5093406;27;45559;-65
2022/01/24 01:24:17;;;;;;;;;38.75;34.50;;;;;;;;5095431;27;45648;-66
2022/01/24 01:26:49;;;;;;;;;41.75;39.25;;;;;;;;5094212;27;45472;-65
2022/01/24 01:29:20;;;;;;;;;46.50;39.25;;;;;;;;5096587;27;46571;-66
2022/01/24 01:55:53;;;;;;;;;49.00;38.00;;;;;;;;4972846;28;45518;-65
2022/01/24 01:58:20;;;;;;;;;50.00;39.75;;;;;;;;4971967;28;45547;-66
2022/01/24 02:00:49;;;;;;;;;35.75;30.50;;;;;;;;4949907;28;47903;-66
2022/01/24 02:03:15;;;;;;;;;43.75;37.50;;;;;;;;4972784;28;45537;-65
2022/01/24 02:05:40;;;;;;;;;46.50;39.50;;;;;;;;4972296;28;45375;-66
2022/01/24 02:08:06;;;;;;;;;48.00;38.50;;;;;;;;4973185;28;45503;-65
2022/01/24 02:10:34;;;;;;;;;54.25;41.75;;;;;;;;4972992;28;46460;-65
2022/01/24 02:12:59;;;;;;;;;44.25;38.50;;;;;;;;4977941;28;45400;-66
2022/01/24 02:18:24;;;;;;;;;41.25;36.50;;;;;;;;5031349;28;45405;-66
2022/01/24 02:25:49;;;;;;;;;36.00;33.00;;;;;;;;5090062;27;45364;-64
2022/01/24 02:28:16;;;;;;;;;40.00;35.00;;;;;;;;5089431;27;45512;-65
2022/01/24 02:33:22;;;;;;;;;49.00;39.75;;;;;;;;5092829;27;45415;-65
2022/01/24 02:35:47;;;;;;;;;38.25;35.00;;;;;;;;5092876;27;45412;-65
2022/01/24 02:38:37;;;;;;;;;45.75;40.25;;;;;;;;5095405;27;45333;-65
2022/01/24 02:49:11;;;;;;;;;40.75;38.00;;;;;;;;5085977;27;45443;-65
2022/01/24 02:54:05;;;;;;;;;45.75;36.25;;;;;;;;5083027;27;45447;-66
2022/01/24 02:56:30;;;;;;;;;46.75;37.75;;;;;;;;5094689;27;45445;-66
2022/01/24 02:58:55;;;;;;;;;54.00;44.50;;;;;;;;5093944;27;45530;-65
2022/01/24 03:01:21;;;;;;;;;43.25;37.50;;;;;;;;5083240;27;46404;-65
2022/01/24 03:03:46;;;;;;;;;51.00;38.75;;;;;;;;5084962;27;45439;-64
2022/01/24 03:06:11;;;;;;;;;39.00;37.25;;;;;;;;5090534;27;45360;-65
2022/01/24 03:08:39;;;;;;;;;47.00;38.00;;;;;;;;5093446;27;45455;-65
2022/01/24 03:11:04;;;;;;;;;42.50;37.75;;;;;;;;5091282;27;47701;-65
2022/01/24 03:13:33;;;;;;;;;42.25;38.25;;;;;;;;5093409;27;45527;-66
2022/01/24 03:15:59;;;;;;;;;46.00;40.25;;;;;;;;5091590;27;45362;-66
2022/01/24 03:18:25;;;;;;;;;52.00;41.00;;;;;;;;5090962;27;45368;-67
2022/01/24 03:20:51;;;;;;;;;38.75;36.50;;;;;;;;5091164;27;48705;-66
2022/01/24 03:23:20;;;;;;;;;44.50;38.75;;;;;;;;5093312;27;46850;-66
2022/01/24 03:25:45;;;;;;;;;38.50;35.50;;;;;;;;5094056;27;45420;-66
2022/01/24 03:28:11;;;;;;;;;43.50;36.00;;;;;;;;5092594;27;45422;-67
2022/01/24 03:30:37;;;;;;;;;43.25;36.50;;;;;;;;5089399;27;46307;-67
2022/01/24 03:33:02;;;;;;;;;42.00;38.50;;;;;;;;5091199;27;45439;-67
2022/01/24 03:35:28;;;;;;;;;51.50;41.50;;;;;;;;5092517;27;45392;-67
2022/01/24 03:37:53;;;;;;;;;45.00;38.25;;;;;;;;5090796;27;45542;-66
2022/01/24 03:40:18;;;;;;;;;44.25;37.25;;;;;;;;5090383;27;45620;-67
2022/01/24 03:42:44;;;;;;;;;43.50;36.75;;;;;;;;5092452;27;45384;-66
2022/01/24 03:45:10;;;;;;;;;48.00;41.50;;;;;;;;5091828;27;45387;-67
2022/01/24 03:50:11;;;;;;;;;35.00;31.25;;;;;;;;5092079;27;45714;-66
2022/01/24 03:52:36;;;;;;;;;43.75;38.00;;;;;;;;5092275;27;45397;-66
2022/01/24 03:55:03;;;;;;;;;36.00;35.75;;;;;;;;5091880;27;45583;-67
2022/01/24 03:57:29;;;;;;;;;37.50;34.75;;;;;;;;5092198;27;45378;-67
2022/01/24 03:59:54;;;;;;;;;38.50;35.75;;;;;;;;5090919;27;46017;-66
2022/01/24 04:02:21;;;;;;;;;44.25;39.75;;;;;;;;5091869;27;46108;-66
2022/01/24 04:04:46;;;;;;;;;48.75;39.75;;;;;;;;5092231;27;45411;-65
2022/01/24 04:07:11;;;;;;;;;41.25;36.00;;;;;;;;5091579;27;45460;-65
2022/01/24 04:09:38;;;;;;;;;48.00;41.25;;;;;;;;5090655;27;45824;-65
2022/01/24 04:12:04;;;;;;;;;45.75;39.75;;;;;;;;5091423;27;45524;-65
2022/01/24 04:17:37;;;;;;;;;47.75;37.50;;;;;;;;5028430;28;45586;-67
2022/01/24 04:22:53;;;;;;;;;51.75;42.75;;;;;;;;4969205;28;45633;-66
2022/01/24 04:25:23;;;;;;;;;43.50;37.75;;;;;;;;4954438;28;45969;-66
2022/01/24 04:27:52;;;;;;;;;52.50;39.50;;;;;;;;4971072;28;45493;-65
2022/01/24 04:30:18;;;;;;;;;50.50;41.75;;;;;;;;4953557;28;46465;-66
2022/01/24 04:32:46;;;;;;;;;41.50;36.75;;;;;;;;4967246;28;45564;-65
2022/01/24 04:35:13;;;;;;;;;40.75;38.50;;;;;;;;4969707;28;45442;-64
2022/01/24 04:37:38;;;;;;;;;46.25;38.75;;;;;;;;4970373;28;45401;-65
2022/01/24 04:40:04;;;;;;;;;40.50;36.75;;;;;;;;4970125;28;46826;-66
2022/01/24 04:42:40;;;;;;;;;45.75;38.75;;;;;;;;4971160;28;45486;-65
2022/01/24 04:50:57;;;;;;;;;46.00;41.00;;;;;;;;4894700;29;45624;-65
2022/01/24 04:56:05;;;;;;;;;44.25;38.25;;;;;;;;4971014;28;45483;-65
2022/01/24 04:58:30;;;;;;;;;50.50;38.75;;;;;;;;4969862;28;45560;-65
2022/01/24 05:00:55;;;;;;;;;39.25;34.00;;;;;;;;4986905;28;46534;-65
2022/01/24 05:03:21;;;;;;;;;44.50;39.25;;;;;;;;4990269;28;45362;-64
2022/01/24 05:05:47;;;;;;;;;44.25;39.75;;;;;;;;4990399;28;46032;-64
2022/01/24 05:08:14;;;;;;;;;48.75;42.75;;;;;;;;4982140;28;45439;-65
2022/01/24 05:10:52;;;;;;;;;49.00;40.50;;;;;;;;4971247;28;47794;-65
2022/01/24 05:24:16;;;;;;;;;41.00;38.25;;;;;;;;5006088;28;45560;-65
2022/01/24 05:26:41;;;;;;;;;44.75;41.50;;;;;;;;5002058;28;45307;-65
2022/01/24 05:29:06;;;;;;;;;48.00;43.50;;;;;;;;5004352;28;45570;-65
2022/01/24 05:31:31;;;;;;;;;37.00;35.75;;;;;;;;5009149;28;46268;-65
2022/01/24 05:33:57;;;;;;;;;49.25;41.25;;;;;;;;5007105;28;45437;-65
2022/01/24 05:36:22;;;;;;;;;54.50;40.75;;;;;;;;5011277;28;45451;-64
2022/01/24 05:38:47;;;;;;;;;44.25;40.25;;;;;;;;4993508;28;45545;-64
2022/01/24 05:41:12;;;;;;;;;47.00;42.25;;;;;;;;5006166;28;46324;-65
2022/01/24 05:43:37;;;;;;;;;44.50;38.50;;;;;;;;5011565;28;45497;-65
2022/01/24 05:46:03;;;;;;;;;45.00;36.50;;;;;;;;5014510;28;45623;-65
2022/01/24 05:48:28;;;;;;;;;44.50;39.00;;;;;;;;5002075;28;45533;-64
2022/01/24 05:50:53;;;;;;;;;42.75;38.50;;;;;;;;5006162;28;46587;-65
2022/01/24 05:53:18;;;;;;;;;41.75;37.25;;;;;;;;5013175;28;45289;-64
2022/01/24 05:55:44;;;;;;;;;49.50;41.00;;;;;;;;5083298;27;45575;-65
2022/01/24 05:58:09;;;;;;;;;41.75;39.00;;;;;;;;5083538;27;45467;-66
2022/01/24 06:00:34;;;;;;;;;44.50;38.50;;;;;;;;5092912;27;45952;-66
2022/01/24 06:02:59;;;;;;;;;47.50;40.50;;;;;;;;5085960;27;45374;-65
2022/01/24 06:05:27;;;;;;;;;48.00;37.25;;;;;;;;5089638;27;45424;-65
2022/01/24 06:07:54;;;;;;;;;48.25;40.75;;;;;;;;5077044;27;45422;-65
2022/01/24 06:10:19;;;;;;;;;42.50;39.00;;;;;;;;5084720;27;46814;-66
2022/01/24 06:12:44;;;;;;;;;42.50;38.75;;;;;;;;5091447;27;45502;-65
2022/01/24 06:15:10;;;;;;;;;42.25;37.50;;;;;;;;5069555;27;45370;-66
2022/01/24 06:17:35;;;;;;;;;42.25;38.00;;;;;;;;5095718;27;45289;-65
2022/01/24 06:20:00;;;;;;;;;46.25;39.25;;;;;;;;5074751;27;47071;-65
2022/01/24 06:22:27;;;;;;;;;49.25;39.25;;;;;;;;5094548;27;45413;-66
2022/01/24 06:24:55;;;;;;;;;35.75;32.75;;;;;;;;5087950;27;45514;-66
2022/01/24 06:27:20;;;;;;;;;42.00;38.00;;;;;;;;5088216;27;45286;-66
2022/01/24 06:29:46;;;;;;;;;41.75;39.25;;;;;;;;5094209;27;46342;-66
2022/01/24 06:32:11;;;;;;;;;49.25;42.75;;;;;;;;5074218;27;45412;-67
2022/01/24 06:34:37;;;;;;;;;42.50;36.00;;;;;;;;5086627;27;45305;-66
2022/01/24 06:37:02;;;;;;;;;47.75;38.75;;;;;;;;5073134;27;45778;-66
2022/01/24 06:39:27;;;;;;;;;43.25;31.50;;;;;;;;5091326;27;46215;-67
2022/01/24 06:42:07;;;;;;;;;38.50;30.75;;;;;;;;5079808;27;45994;-66
2022/01/24 06:44:32;;;;;;;;;54.00;44.25;;;;;;;;5087162;27;45465;-67
2022/01/24 06:46:58;;;;;;;;;47.25;39.00;;;;;;;;5084882;27;45467;-67
2022/01/24 06:49:23;;;;;;;;;43.00;40.25;;;;;;;;5073568;27;47835;-66
2022/01/24 06:51:48;;;;;;;;;38.50;36.50;;;;;;;;5093146;27;45375;-66
2022/01/24 06:54:13;;;;;;;;;48.00;37.25;;;;;;;;5087975;27;45325;-66
2022/01/24 06:56:39;;;;;;;;;56.50;44.50;;;;;;;;5081138;27;45434;-67
2022/01/24 06:59:05;;;;;;;;;48.50;42.00;;;;;;;;5068795;27;47146;-66
2022/01/24 07:01:30;;;;;;;;;51.75;44.50;;;;;;;;5085340;27;45510;-67
2022/01/24 07:03:55;;;;;;;;;53.00;45.75;;;;;;;;5091340;27;45551;-65
2022/01/24 07:06:20;;;;;;;;;48.00;40.75;;;;;;;;5071182;27;45819;-66
2022/01/24 07:08:46;;;;;;;;;51.75;43.25;;;;;;;;5076138;27;47323;-66
2022/01/24 07:11:11;;;;;;;;;51.75;42.25;;;;;;;;5075750;27;45577;-65
2022/01/24 07:13:37;;;;;;;;;47.50;41.50;;;;;;;;5093576;27;45781;-66
2022/01/24 07:16:05;;;;;;;;;51.50;41.75;;;;;;;;5091422;27;45433;-66
2022/01/24 07:20:56;;;;;;;;;49.50;41.25;;;;;;;;5100442;27;45650;-66
2022/01/24 07:23:22;;;;;;;;;51.00;44.50;;;;;;;;5097008;27;45500;-66
2022/01/24 07:25:47;;;;;;;;;44.00;39.50;;;;;;;;5093187;27;45492;-66
2022/01/24 07:28:13;;;;;;;;;53.00;43.50;;;;;;;;5093136;27;45445;-66
2022/01/24 07:30:38;;;;;;;;;42.25;36.50;;;;;;;;5073520;27;46461;-66
2022/01/24 07:33:03;;;;;;;;;52.50;42.00;;;;;;;;5074539;27;45484;-66
2022/01/24 07:35:29;;;;;;;;;56.00;44.50;;;;;;;;5095459;27;45344;-66
2022/01/24 07:37:54;;;;;;;;;47.75;39.75;;;;;;;;5092484;27;45834;-66
2022/01/24 07:40:21;;;;;;;;;50.50;41.50;;;;;;;;5092677;27;46934;-66
2022/01/24 07:45:18;;;;;;;;;48.25;40.50;;;;;;;;5091884;27;45373;-67
2022/01/24 07:47:46;;;;;;;;;53.25;42.50;;;;;;;;5093478;27;46267;-66
2022/01/24 07:50:12;;;;;;;;;50.25;42.50;;;;;;;;5093501;27;45447;-66
2022/01/24 07:52:37;;;;;;;;;43.50;39.00;;;;;;;;5092384;27;45399;-66
2022/01/24 07:55:02;;;;;;;;;32.25;32.25;;;;;;;;5069089;27;45388;-66
2022/01/24 07:57:27;;;;;;;;;47.00;40.50;;;;;;;;5081187;27;47530;-66
2022/01/24 07:59:53;;;;;;;;;48.25;39.00;;;;;;;;5092184;27;45425;-66
2022/01/24 08:02:18;;;;;;;;;51.75;41.50;;;;;;;;5084322;27;45459;-66
2022/01/24 08:04:43;;;;;;;;;41.00;36.50;;;;;;;;5086544;27;45337;-66
2022/01/24 08:07:08;;;;;;;;;44.00;41.75;;;;;;;;5088570;27;45436;-67
2022/01/24 08:09:33;;;;;;;;;48.50;37.50;;;;;;;;5071189;27;46227;-66
2022/01/24 08:11:59;;;;;;;;;54.00;45.25;;;;;;;;5073206;27;45468;-66
2022/01/24 08:14:24;;;;;;;;;43.50;37.75;;;;;;;;5084327;27;45525;-65
2022/01/24 08:16:49;;;;;;;;;51.25;43.25;;;;;;;;5087466;27;46134;-66
2022/01/24 08:19:14;;;;;;;;;45.25;40.75;;;;;;;;5087392;27;45622;-66
2022/01/24 08:21:39;;;;;;;;;49.75;42.25;;;;;;;;5084217;27;45392;-67
2022/01/24 08:24:07;;;;;;;;;41.75;39.00;;;;;;;;5086218;27;45285;-67
2022/01/24 08:26:32;;;;;;;;;51.75;42.50;;;;;;;;5076184;27;47551;-67
2022/01/24 08:28:58;;;;;;;;;57.00;43.75;;;;;;;;5085632;27;45408;-67
2022/01/24 08:31:23;;;;;;;;;55.75;42.50;;;;;;;;5084668;27;45515;-67
2022/01/24 08:33:49;;;;;;;;;48.50;43.00;;;;;;;;5091856;27;45550;-67
2022/01/24 08:36:14;;;;;;;;;56.50;43.25;;;;;;;;5068675;27;47713;-67
2022/01/24 08:38:39;;;;;;;;;62.75;50.75;;;;;;;;5094154;27;45285;-66
2022/01/24 08:41:13;;;;;;;;;61.50;50.75;;;;;;;;5072167;27;45489;-66
2022/01/24 08:46:12;;;;;;;;;65.50;52.75;;;;;;;;5089485;27;45620;-67
2022/01/24 08:48:37;;;;;;;;;48.75;43.75;;;;;;;;5093407;27;45863;-66
2022/01/24 08:51:02;;;;;;;;;57.50;48.00;;;;;;;;5056846;27;45621;-66
2022/01/24 08:53:33;;;;;;;;;61.75;47.50;;;;;;;;5094189;27;45394;-67
2022/01/24 08:55:59;;;;;;;;;52.00;41.50;;;;;;;;5091739;27;46090;-67
2022/01/24 08:58:26;;;;;;;;;49.50;42.50;;;;;;;;5073519;27;45447;-66
2022/01/24 09:00:52;;;;;;;;;53.75;44.25;;;;;;;;5088691;27;45481;-66
2022/01/24 09:03:17;;;;;;;;;57.25;48.00;;;;;;;;5074245;27;45634;-67
2022/01/24 09:05:42;;;;;;;;;48.25;42.25;;;;;;;;5072503;27;48515;-67
2022/01/24 09:08:09;;;;;;;;;57.50;46.25;;;;;;;;5095801;27;45409;-67
2022/01/24 09:10:35;;;;;;;;;55.75;45.25;;;;;;;;5094197;27;45705;-65
2022/01/24 09:13:01;;;;;;;;;57.50;43.75;;;;;;;;5077348;27;45388;-67
2022/01/24 09:15:27;;;;;;;;;50.25;43.50;;;;;;;;5092257;27;45625;-67
2022/01/24 09:17:52;;;;;;;;;50.00;40.75;;;;;;;;5075878;27;47052;-67
2022/01/24 09:20:17;;;;;;;;;46.00;40.00;;;;;;;;5077641;27;45453;-68
2022/01/24 09:22:43;;;;;;;;;54.50;43.50;;;;;;;;5093055;27;45360;-67
2022/01/24 09:25:12;;;;;;;;;56.00;45.75;;;;;;;;5094494;27;45667;-68
2022/01/24 09:27:40;;;;;;;;;50.00;41.25;;;;;;;;5076397;27;45447;-68
2022/01/24 09:30:06;;;;;;;;;64.75;50.75;;;;;;;;5094917;27;45395;-67
2022/01/24 09:32:31;;;;;;;;;121.33;108.67;;;;;;;;5097322;27;45269;-67
2022/01/24 09:34:56;;;;;;;;;84.50;74.50;;;;;;;;5094637;27;45611;-67
2022/01/24 09:37:21;;;;;;;;;75.25;58.00;;;;;;;;5094341;27;45360;-67
2022/01/24 09:39:47;;;;;;;;;72.50;58.25;;;;;;;;5095140;27;45352;-67
2022/01/24 09:42:12;;;;;;;;;85.50;78.00;;;;;;;;5075727;27;45559;-67
2022/01/24 09:44:37;;;;;;;;;69.50;54.75;;;;;;;;5096200;27;46238;-68
2022/01/24 09:47:03;;;;;;;;;53.75;45.25;;;;;;;;5074873;27;45416;-67
2022/01/24 09:49:28;;;;;;;;;57.00;46.50;;;;;;;;5070608;27;45503;-67
2022/01/24 09:51:53;;;;;;;;;51.25;42.00;;;;;;;;5074767;27;45406;-68
2022/01/24 09:54:19;;;;;;;;;66.25;51.75;;;;;;;;5089227;27;45598;-68
2022/01/24 09:56:44;;;;;;;;;64.50;53.00;;;;;;;;5089621;27;45361;-67
2022/01/24 09:59:09;;;;;;;;;58.25;46.75;;;;;;;;5076590;27;45297;-69
2022/01/24 10:01:35;;;;;;;;;57.75;47.00;;;;;;;;5081784;27;45431;-69
2022/01/24 10:04:17;;;;;;;;;62.00;49.00;;;;;;;;5092842;27;46581;-67
2022/01/24 10:06:55;;;;;;;;;54.25;43.50;;;;;;;;5092957;27;45562;-67
2022/01/24 10:09:38;;;;;;;;;50.25;41.00;;;;;;;;5072266;27;45375;-67
2022/01/24 10:12:08;;;;;;;;;50.50;41.75;;;;;;;;5093887;27;45483;-68
2022/01/24 10:17:25;;;;;;;;;45.25;38.75;;;;;;;;5089905;27;45455;-68
2022/01/24 10:19:50;;;;;;;;;49.50;40.00;;;;;;;;5063907;27;45428;-67
2022/01/24 10:22:16;;;;;;;;;32.75;31.75;;;;;;;;5052910;27;45469;-67
2022/01/24 10:24:44;;;;;;;;;45.25;37.50;;;;;;;;5073157;28;46477;-67
2022/01/24 10:27:18;;;;;;;;;48.50;40.00;;;;;;;;5069935;27;45293;-68
2022/01/24 10:30:00;;;;;;;;;50.00;39.75;;;;;;;;5070861;28;45436;-66
2022/01/24 10:32:46;;;;;;;;;50.00;42.00;;;;;;;;5071595;28;45479;-68
2022/01/24 10:35:27;;;;;;;;;47.25;38.50;;;;;;;;5056430;28;46593;-68
2022/01/24 10:38:12;;;;;;;;;48.00;40.75;;;;;;;;5073289;27;45432;-66
2022/01/24 10:41:05;;;;;;;;;82.50;79.00;;;;;;;;5072135;28;45579;-68
2022/01/24 10:43:31;;;;;;;;;43.25;36.00;;;;;;;;5072639;28;45517;-67
2022/01/24 10:45:57;;;;;;;;;45.75;39.50;;;;;;;;5073408;27;45558;-68
2022/01/24 10:48:24;;;;;;;;;46.00;38.00;;;;;;;;5053467;28;45495;-69
2022/01/24 10:51:01;;;;;;;;;44.00;36.75;;;;;;;;5069274;28;45445;-66
2022/01/24 10:53:33;;;;;;;;;49.25;41.75;;;;;;;;5074389;28;45508;-68
2022/01/24 10:55:58;;;;;;;;;50.00;40.00;;;;;;;;5078522;27;45914;-68
2022/01/24 10:58:33;;;;;;;;;47.25;39.75;;;;;;;;5077072;27;45393;-66
2022/01/24 11:00:58;;;;;;;;;52.25;42.00;;;;;;;;5069858;28;45401;-67
2022/01/24 11:03:24;;;;;;;;;43.00;38.00;;;;;;;;5071886;28;45613;-68
2022/01/24 11:05:49;;;;;;;;;51.25;40.50;;;;;;;;5038745;28;47560;-67
2022/01/24 11:08:16;;;;;;;;;54.50;42.00;;;;;;;;5074406;28;45432;-67
2022/01/24 11:10:43;;;;;;;;;45.00;39.00;;;;;;;;5052872;28;46049;-68
2022/01/24 11:13:09;;;;;;;;;46.00;37.50;;;;;;;;5069862;27;45495;-67
2022/01/24 11:15:35;;;;;;;;;50.50;42.25;;;;;;;;5052677;28;48508;-67
2022/01/24 11:18:01;;;;;;;;;50.75;41.25;;;;;;;;5070446;28;45434;-67
2022/01/24 11:20:31;;;;;;;;;44.25;37.75;;;;;;;;5057325;27;45570;-67
2022/01/24 11:22:59;;;;;;;;;45.50;38.00;;;;;;;;5091405;27;45807;-68
2022/01/24 11:25:26;;;;;;;;;43.25;38.25;;;;;;;;5089879;27;45711;-67
2022/01/24 11:27:51;;;;;;;;;52.75;40.75;;;;;;;;5092431;27;45431;-66
2022/01/24 11:30:18;;;;;;;;;50.75;41.75;;;;;;;;5091246;27;45585;-67
2022/01/24 11:32:44;;;;;;;;;41.75;33.75;;;;;;;;5091640;27;45456;-67
2022/01/24 11:35:09;;;;;;;;;41.75;35.25;;;;;;;;5093315;27;46396;-66
2022/01/24 11:37:34;;;;;;;;;49.25;39.50;;;;;;;;5072457;27;45776;-68
2022/01/24 11:40:01;;;;;;;;;41.50;36.75;;;;;;;;5073894;27;45432;-67
2022/01/24 11:42:31;;;;;;;;;46.25;39.50;;;;;;;;5090786;27;45693;-68
2022/01/24 11:45:03;;;;;;;;;45.50;37.25;;;;;;;;5073450;27;47817;-68
2022/01/24 11:47:28;;;;;;;;;45.00;38.50;;;;;;;;5090969;27;45494;-67
2022/01/24 11:49:54;;;;;;;;;41.00;37.25;;;;;;;;5072945;27;45490;-67
2022/01/24 11:52:20;;;;;;;;;47.25;37.75;;;;;;;;5090179;27;45470;-68
2022/01/24 11:57:34;;;;;;;;;44.50;36.75;;;;;;;;5089705;27;45456;-67
2022/01/24 12:00:05;;;;;;;;;37.50;33.00;;;;;;;;5055269;27;45519;-67
2022/01/24 12:02:45;;;;;;;;;43.50;38.00;;;;;;;;5091826;27;45850;-68
2022/01/24 12:05:10;;;;;;;;;42.75;38.00;;;;;;;;5068555;28;46808;-68
2022/01/24 12:07:44;;;;;;;;;43.25;37.00;;;;;;;;5088485;27;45484;-68
2022/01/24 12:10:38;;;;;;;;;46.50;39.75;;;;;;;;5089054;27;45456;-67
2022/01/24 12:13:09;;;;;;;;;45.50;39.00;;;;;;;;5080854;27;45341;-67
2022/01/24 12:15:37;;;;;;;;;43.75;38.25;;;;;;;;5088330;27;46597;-68
2022/01/24 12:18:03;;;;;;;;;59.50;47.75;;;;;;;;5089909;27;45415;-68
2022/01/24 12:20:31;;;;;;;;;45.00;37.75;;;;;;;;5092862;27;45372;-70
2022/01/24 12:22:57;;;;;;;;;52.75;43.75;;;;;;;;5072431;27;45504;-68
2022/01/24 12:25:41;;;;;;;;;46.25;39.25;;;;;;;;5090795;27;47627;-68
2022/01/24 12:28:15;;;;;;;;;45.50;37.50;;;;;;;;5089739;27;45476;-69
2022/01/24 12:30:56;;;;;;;;;51.50;42.75;;;;;;;;5090435;27;45400;-68
2022/01/24 12:33:36;;;;;;;;;53.00;42.75;;;;;;;;5091822;27;46064;-68
2022/01/24 12:36:02;;;;;;;;;44.50;37.50;;;;;;;;5073506;27;47832;-68
2022/01/24 12:38:42;;;;;;;;;44.25;36.75;;;;;;;;5093631;27;45553;-67
2022/01/24 12:41:38;;;;;;;;;47.25;38.75;;;;;;;;5075304;27;45448;-67
2022/01/24 12:46:29;;;;;;;;;38.75;35.75;;;;;;;;5093999;27;45668;-68
2022/01/24 12:48:56;;;;;;;;;49.00;38.25;;;;;;;;5095565;27;45490;-68
2022/01/24 12:51:22;;;;;;;;;47.25;39.00;;;;;;;;5095794;27;45919;-69
2022/01/24 12:53:48;;;;;;;;;43.00;35.75;;;;;;;;5078759;27;45552;-69
2022/01/24 12:56:15;;;;;;;;;34.50;31.00;;;;;;;;5096039;27;45720;-68
2022/01/24 12:58:41;;;;;;;;;37.50;32.50;;;;;;;;5095597;27;45416;-67
2022/01/24 13:01:17;;;;;;;;;42.50;34.75;;;;;;;;5093291;27;46007;-67
2022/01/24 13:03:46;;;;;;;;;36.00;33.00;;;;;;;;5095248;27;45455;-69
2022/01/24 13:06:16;;;;;;;;;45.25;35.75;;;;;;;;5061370;27;47623;-68
2022/01/24 13:09:00;;;;;;;;;42.00;36.00;;;;;;;;5097316;27;45462;-69
2022/01/24 13:11:28;;;;;;;;;42.50;37.00;;;;;;;;5095916;27;45439;-68
2022/01/24 13:13:57;;;;;;;;;51.75;42.25;;;;;;;;5076699;27;45781;-67
2022/01/24 13:22:14;;;;;;;;;46.75;39.50;;;;;;;;5094567;27;45424;-68
2022/01/24 13:24:39;;;;;;;;;40.00;35.75;;;;;;;;5077023;27;45520;-68
2022/01/24 13:27:05;;;;;;;;;45.25;36.25;;;;;;;;5095240;27;46873;-68
2022/01/24 13:29:36;;;;;;;;;47.00;40.00;;;;;;;;5078666;27;45405;-69
2022/01/24 13:32:01;;;;;;;;;41.50;35.75;;;;;;;;5075935;27;45357;-68
2022/01/24 13:34:26;;;;;;;;;44.00;36.50;;;;;;;;5094583;27;45517;-69
2022/01/24 13:36:51;;;;;;;;;42.75;36.75;;;;;;;;5094032;27;46253;-67
2022/01/24 13:39:17;;;;;;;;;41.00;34.25;;;;;;;;5095309;27;45441;-68
2022/01/24 13:41:44;;;;;;;;;43.25;36.00;;;;;;;;5097228;27;45347;-67
2022/01/24 13:44:13;;;;;;;;;36.75;33.00;;;;;;;;5072029;27;45449;-68
2022/01/24 13:46:39;;;;;;;;;37.50;34.25;;;;;;;;5072020;27;47375;-68
2022/01/24 13:49:05;;;;;;;;;46.00;35.75;;;;;;;;5094753;27;45478;-67
2022/01/24 13:51:40;;;;;;;;;37.50;33.50;;;;;;;;5094354;27;45451;-68
2022/01/24 13:54:06;;;;;;;;;30.50;29.25;;;;;;;;5089268;27;45524;-69
2022/01/24 13:56:33;;;;;;;;;39.00;34.00;;;;;;;;5094859;27;45872;-68
2022/01/24 13:58:58;;;;;;;;;30.00;28.75;;;;;;;;5075282;27;45510;-66
2022/01/24 14:01:23;;;;;;;;;33.25;32.25;;;;;;;;5093423;27;45426;-68
2022/01/24 14:03:58;;;;;;;;;40.25;34.25;;;;;;;;5094747;27;45387;-68
2022/01/24 14:06:24;;;;;;;;;40.00;34.75;;;;;;;;5061798;27;46642;-68
2022/01/24 14:09:01;;;;;;;;;39.75;36.75;;;;;;;;5076465;27;45400;-68
2022/01/24 14:11:29;;;;;;;;;44.75;39.25;;;;;;;;5096804;27;45531;-69
2022/01/24 14:14:09;;;;;;;;;36.50;34.25;;;;;;;;5095712;27;45633;-69
2022/01/24 14:16:51;;;;;;;;;41.75;36.25;;;;;;;;5073577;27;48583;-67
2022/01/24 14:19:16;;;;;;;;;41.00;34.00;;;;;;;;5075174;27;45485;-69
2022/01/24 14:21:41;;;;;;;;;41.50;37.00;;;;;;;;5093423;27;45428;-68
2022/01/24 14:24:07;;;;;;;;;45.75;35.75;;;;;;;;5094329;27;45532;-68
2022/01/24 14:26:33;;;;;;;;;44.25;37.25;;;;;;;;5096020;27;47551;-69
2022/01/24 14:29:12;;;;;;;;;40.75;36.00;;;;;;;;5091331;27;45391;-68
2022/01/24 14:31:38;;;;;;;;;36.25;33.75;;;;;;;;5091895;27;45384;-68
2022/01/24 14:34:08;;;;;;;;;43.25;36.50;;;;;;;;5094616;27;45476;-68
2022/01/24 14:36:33;;;;;;;;;37.75;34.75;;;;;;;;5075851;27;48462;-68
2022/01/24 14:39:00;;;;;;;;;33.50;31.50;;;;;;;;5093849;27;45449;-68
2022/01/24 14:41:30;;;;;;;;;39.50;34.75;;;;;;;;5096196;27;45536;-68
2022/01/24 14:46:41;;;;;;;;;33.50;31.50;;;;;;;;5091687;27;45427;-68
2022/01/24 14:49:07;;;;;;;;;50.25;41.00;;;;;;;;5092030;27;45435;-69
2022/01/24 14:51:33;;;;;;;;;34.25;33.00;;;;;;;;5093627;27;45494;-68
2022/01/24 14:54:00;;;;;;;;;40.00;35.75;;;;;;;;5091493;27;45460;-68
2022/01/24 14:56:26;;;;;;;;;32.00;31.75;;;;;;;;5094281;27;45693;-68
2022/01/24 14:58:52;;;;;;;;;36.75;34.25;;;;;;;;5091623;27;45333;-69
2022/01/24 15:01:18;;;;;;;;;35.00;32.50;;;;;;;;5091966;27;45411;-66
2022/01/24 15:03:43;;;;;;;;;38.50;35.25;;;;;;;;5073936;27;45520;-68
2022/01/24 15:06:10;;;;;;;;;39.50;34.50;;;;;;;;5073868;27;47466;-68
2022/01/24 15:08:36;;;;;;;;;39.00;34.75;;;;;;;;5090976;27;45474;-66
2022/01/24 15:11:01;;;;;;;;;36.50;32.00;;;;;;;;5075081;27;45450;-68
2022/01/24 15:13:34;;;;;;;;;39.75;34.75;;;;;;;;5073001;27;45515;-68
2022/01/24 15:16:12;;;;;;;;;40.00;33.00;;;;;;;;5091275;27;46478;-68
2022/01/24 15:24:27;;;;;;;;;35.75;33.00;;;;;;;;5092594;27;45373;-68
2022/01/24 15:26:52;;;;;;;;;6.75;3.50;;;;;;;;5074218;27;47988;-67
2022/01/24 15:29:18;;;;;;;;;42.25;36.50;;;;;;;;5075998;27;45472;-67
2022/01/24 15:31:46;;;;;;;;;35.00;32.50;;;;;;;;5091650;27;45450;-67
2022/01/24 15:34:18;;;;;;;;;36.50;33.00;;;;;;;;5092678;27;45351;-68
2022/01/24 15:36:43;;;;;;;;;38.75;35.50;;;;;;;;5093032;27;46508;-67
2022/01/24 15:39:09;;;;;;;;;34.75;31.00;;;;;;;;5074477;27;45670;-68
2022/01/24 15:41:44;;;;;;;;;34.00;30.00;;;;;;;;5095372;27;45426;-67
2022/01/24 15:44:32;;;;;;;;;30.00;28.25;;;;;;;;5076048;27;45396;-68
2022/01/24 15:47:16;;;;;;;;;29.75;28.75;;;;;;;;5090148;27;45533;-68
2022/01/24 15:49:44;;;;;;;;;33.75;31.75;;;;;;;;5074118;27;45434;-66
2022/01/24 15:52:09;;;;;;;;;43.00;36.25;;;;;;;;5074743;27;45322;-68
2022/01/24 15:54:34;;;;;;;;;32.25;29.25;;;;;;;;5092742;27;45458;-68
2022/01/24 15:59:44;;;;;;;;;45.75;37.50;;;;;;;;5093377;27;45439;-68
2022/01/24 16:02:10;;;;;;;;;39.00;34.50;;;;;;;;5092289;27;45444;-67
2022/01/24 16:04:35;;;;;;;;;41.50;34.25;;;;;;;;5090047;27;45247;-66
2022/01/24 16:07:01;;;;;;;;;37.50;31.00;;;;;;;;5090649;27;46131;-68
2022/01/24 16:09:27;;;;;;;;;36.50;33.75;;;;;;;;5085749;27;45310;-66
2022/01/24 16:11:52;;;;;;;;;41.25;35.75;;;;;;;;5075310;27;45531;-67
2022/01/24 16:14:17;;;;;;;;;36.50;34.00;;;;;;;;5093804;27;45320;-67
2022/01/24 16:16:43;;;;;;;;;27.25;27.25;;;;;;;;5072026;27;46121;-67
2022/01/24 16:19:08;;;;;;;;;30.25;29.75;;;;;;;;5092245;27;45485;-67
2022/01/24 16:21:46;;;;;;;;;36.50;34.00;;;;;;;;5090527;27;45396;-66
2022/01/24 16:26:41;;;;;;;;;25.25;25.00;;;;;;;;5093334;27;46410;-67
2022/01/24 16:29:06;;;;;;;;;34.25;29.50;;;;;;;;5089962;27;45383;-66
2022/01/24 16:31:31;;;;;;;;;30.75;27.00;;;;;;;;5089506;27;45498;-67
2022/01/24 16:33:56;;;;;;;;;34.50;33.50;;;;;;;;5090817;27;45473;-67
2022/01/24 16:36:22;;;;;;;;;25.75;23.00;;;;;;;;5073443;27;47735;-67
2022/01/24 16:38:47;;;;;;;;;45.50;35.75;;;;;;;;5093130;27;45624;-68